createdAt,value
2023-03-22T00:01:12.363Z,100261.19
2023-03-22T00:03:42.789Z,100262.06
2023-03-22T00:06:12.905Z,100266.41
2023-03-22T00:08:45.865Z,100251.91
2023-03-22T00:11:16.039Z,100248.69
2023-03-22T00:13:47.513Z,100248.34
2023-03-22T00:16:18.375Z,100241.94
2023-03-22T00:18:48.344Z,100244.66
2023-03-22T00:21:19.625Z,100248.22
2023-03-22T00:23:52.034Z,100251.78
2023-03-22T00:26:21.889Z,100243.19
2023-03-22T00:28:51.787Z,100238.31
2023-03-22T00:31:22.401Z,100238.31
2023-03-22T00:33:52.341Z,100239.00
2023-03-22T00:36:22.281Z,100236.28
2023-03-22T00:38:57.107Z,100232.59
2023-03-22T00:41:27.313Z,100231.06
2023-03-22T00:43:57.201Z,100224.03
2023-03-22T00:46:27.254Z,100212.72
2023-03-22T00:48:57.453Z,100215.75
2023-03-22T00:51:27.722Z,100212.41
2023-03-22T00:54:00.340Z,100207.69
2023-03-22T00:56:33.959Z,100210.06
2023-03-22T00:59:12.092Z,100212.09
2023-03-22T01:01:42.165Z,100207.88
2023-03-22T01:04:18.234Z,100202.97
2023-03-22T01:06:48.585Z,100205.66
2023-03-22T01:09:23.960Z,100201.63
2023-03-22T01:11:53.844Z,100191.88
2023-03-22T01:14:23.750Z,100195.22
2023-03-22T01:16:54.943Z,100186.47
2023-03-22T01:19:24.970Z,100189.50
2023-03-22T01:21:54.902Z,100183.06
2023-03-22T01:24:27.823Z,100195.56
2023-03-22T01:26:57.775Z,100178.03
2023-03-22T01:29:28.172Z,100180.53
2023-03-22T01:31:58.092Z,100176.50
2023-03-22T01:34:28.269Z,100177.00
2023-03-22T01:36:58.373Z,100177.53
2023-03-22T01:39:32.565Z,100176.69
2023-03-22T01:42:06.892Z,100171.81
2023-03-22T01:44:36.852Z,100166.72
2023-03-22T01:47:07.067Z,100165.88
2023-03-22T01:49:38.519Z,100172.97
2023-03-22T01:52:13.698Z,100167.41
2023-03-22T01:55:13.805Z,100170.94
2023-03-22T01:57:48.878Z,100169.78
2023-03-22T02:00:25.885Z,100171.28
2023-03-22T02:03:36.579Z,100165.22
2023-03-22T02:06:06.812Z,100164.38
2023-03-22T02:08:36.753Z,100169.25
2023-03-22T02:11:19.848Z,100156.47
2023-03-22T02:14:09.941Z,100164.56
2023-03-22T02:17:24.538Z,100159.84
2023-03-22T02:20:48.135Z,100165.06
2023-03-22T02:23:58.325Z,100160.69
2023-03-22T02:27:06.536Z,100171.09
2023-03-22T02:29:48.108Z,100160.16
2023-03-22T02:32:50.529Z,100167.09
2023-03-22T02:35:41.618Z,100170.25
2023-03-22T02:38:47.678Z,100169.25
2023-03-22T02:41:35.359Z,100164.06
2023-03-22T02:44:17.538Z,100171.28
2023-03-22T02:46:54.085Z,100154.09
2023-03-22T02:49:35.881Z,100158.13
2023-03-22T02:52:19.121Z,100154.09
2023-03-22T02:54:58.077Z,100155.63
2023-03-22T02:57:39.564Z,100143.97
2023-03-22T03:00:14.118Z,100146.84
2023-03-22T03:02:50.332Z,100145.13
2023-03-22T03:05:23.171Z,100147.66
2023-03-22T03:07:59.937Z,100142.25
2023-03-22T03:10:32.439Z,100140.56
2023-03-22T03:13:05.684Z,100147.28
2023-03-22T03:15:36.015Z,100136.16
2023-03-22T03:18:26.408Z,100150.34
2023-03-22T03:21:05.722Z,100143.94
2023-03-22T03:23:49.795Z,100137.56
2023-03-22T03:26:31.005Z,100129.47
2023-03-22T03:29:15.019Z,100122.88
2023-03-22T03:31:53.706Z,100119.84
2023-03-22T03:34:30.839Z,100128.28
2023-03-22T03:37:08.345Z,100120.03
2023-03-22T03:39:44.457Z,100124.28
2023-03-22T03:42:20.876Z,100119.88
2023-03-22T03:44:53.693Z,100119.41
2023-03-22T03:47:26.018Z,100128.81
2023-03-22T03:49:55.982Z,100136.91
2023-03-22T03:52:26.722Z,100133.22
2023-03-22T03:54:56.756Z,100139.28
2023-03-22T03:57:32.272Z,100146.69
2023-03-22T04:00:04.990Z,100145.69
2023-03-22T04:02:43.964Z,100146.34
2023-03-22T04:05:27.094Z,100141.28
2023-03-22T04:07:56.943Z,100150.72
2023-03-22T04:10:27.170Z,100138.25
2023-03-22T04:12:57.512Z,100134.56
2023-03-22T04:15:30.322Z,100142.81
2023-03-22T04:18:03.693Z,100149.03
2023-03-22T04:20:34.758Z,100137.94
2023-03-22T04:23:04.611Z,100135.25
2023-03-22T04:25:37.945Z,100131.19
2023-03-22T04:28:13.703Z,100128.50
2023-03-22T04:30:46.214Z,100122.44
2023-03-22T04:33:46.978Z,100116.38
2023-03-22T04:36:25.583Z,100116.72
2023-03-22T04:39:16.022Z,100123.09
2023-03-22T04:41:53.567Z,100122.78
2023-03-22T04:44:23.426Z,100112.31
2023-03-22T04:46:56.908Z,100116.69
2023-03-22T04:49:27.207Z,100109.97
2023-03-22T04:51:58.339Z,100110.66
2023-03-22T04:54:36.483Z,100111.97
2023-03-22T04:57:07.145Z,100109.94
2023-03-22T04:59:42.664Z,100103.56
2023-03-22T05:02:16.810Z,100113.97
2023-03-22T05:04:47.389Z,100112.59
2023-03-22T05:07:31.007Z,100113.63
2023-03-22T05:10:02.914Z,100124.41
2023-03-22T05:12:32.893Z,100117.72
2023-03-22T05:15:35.220Z,100112.59
2023-03-22T05:18:09.967Z,100112.78
2023-03-22T05:20:41.110Z,100115.28
2023-03-22T05:23:22.379Z,100114.59
2023-03-22T05:25:58.412Z,100123.84
2023-03-22T05:28:29.715Z,100125.00
2023-03-22T05:31:08.520Z,100127.72
2023-03-22T05:33:50.645Z,100123.38
2023-03-22T05:36:25.676Z,100126.22
2023-03-22T05:39:30.889Z,100131.78
2023-03-22T05:42:02.177Z,100127.94
2023-03-22T05:44:32.583Z,100124.72
2023-03-22T05:47:12.434Z,100133.03
2023-03-22T05:49:54.171Z,100130.31
2023-03-22T05:52:27.055Z,100137.88
2023-03-22T05:55:23.354Z,100126.78
2023-03-22T05:57:58.524Z,100136.84
2023-03-22T06:00:32.170Z,100131.47
2023-03-22T06:03:20.727Z,100137.22
2023-03-22T06:06:02.191Z,100136.88
2023-03-22T06:08:44.036Z,100135.84
2023-03-22T06:11:18.624Z,100143.28
2023-03-22T06:13:48.802Z,100135.56
2023-03-22T06:16:20.880Z,100133.88
2023-03-22T06:18:50.889Z,100141.44
2023-03-22T06:21:23.370Z,100148.34
2023-03-22T06:23:53.332Z,100138.56
2023-03-22T06:26:24.777Z,100141.75
2023-03-22T06:28:54.763Z,100137.22
2023-03-22T06:31:24.668Z,100146.19
2023-03-22T06:34:01.271Z,100137.94
2023-03-22T06:36:46.128Z,100127.84
2023-03-22T06:39:20.751Z,100133.72
2023-03-22T06:41:52.683Z,100130.53
2023-03-22T06:44:22.684Z,100132.72
2023-03-22T06:46:55.456Z,100135.91
2023-03-22T06:49:40.379Z,100137.59
2023-03-22T06:52:13.806Z,100141.47
2023-03-22T06:54:44.229Z,100136.56
2023-03-22T06:57:14.435Z,100149.22
2023-03-22T06:59:44.337Z,100153.75
2023-03-22T07:02:15.707Z,100148.69
2023-03-22T07:05:01.580Z,100146.97
2023-03-22T07:07:34.214Z,100153.00
2023-03-22T07:10:04.218Z,100157.84
2023-03-22T07:12:34.564Z,100160.53
2023-03-22T07:15:11.381Z,100158.28
2023-03-22T07:17:59.859Z,100161.94
2023-03-22T07:20:30.765Z,100151.47
2023-03-22T07:23:03.432Z,100147.75
2023-03-22T07:25:37.565Z,100148.31
2023-03-22T07:28:20.030Z,100151.50
2023-03-22T07:30:50.226Z,100143.25
2023-03-22T07:33:22.588Z,100149.63
2023-03-22T07:35:52.608Z,100151.44
2023-03-22T07:38:25.517Z,100143.28
2023-03-22T07:40:56.663Z,100146.97
2023-03-22T07:43:35.383Z,100154.97
2023-03-22T07:46:14.588Z,100160.97
2023-03-22T07:48:44.572Z,100152.97
2023-03-22T07:51:34.928Z,100162.41
2023-03-22T07:54:09.790Z,100156.72
2023-03-22T07:56:40.292Z,100161.16
2023-03-22T07:59:10.320Z,100150.06
2023-03-22T08:01:40.376Z,100148.25
2023-03-22T08:04:22.726Z,100149.19
2023-03-22T08:07:00.084Z,100138.53
2023-03-22T08:09:33.578Z,100131.34
2023-03-22T08:12:04.076Z,100137.25
2023-03-22T08:14:37.058Z,100136.50
2023-03-22T08:17:10.812Z,100137.50
2023-03-22T08:19:40.743Z,100142.13
2023-03-22T08:22:15.473Z,100148.03
2023-03-22T08:25:20.166Z,100141.53
2023-03-22T08:27:50.321Z,100138.28
2023-03-22T08:30:22.063Z,100137.78
2023-03-22T08:32:52.044Z,100133.59
2023-03-22T08:35:22.687Z,100138.22
2023-03-22T08:37:56.619Z,100122.47
2023-03-22T08:40:34.513Z,100118.22
2023-03-22T08:43:05.893Z,100128.34
2023-03-22T08:45:36.150Z,100135.06
2023-03-22T08:48:12.549Z,100120.81
2023-03-22T08:51:04.869Z,100123.13
2023-03-22T08:53:58.823Z,100121.97
2023-03-22T08:56:51.670Z,100134.50
2023-03-22T08:59:33.193Z,100123.47
2023-03-22T09:02:19.995Z,100119.44
2023-03-22T09:04:50.869Z,100108.00
2023-03-22T09:07:22.606Z,100114.16
2023-03-22T09:10:03.468Z,100110.78
2023-03-22T09:12:37.131Z,100104.13
2023-03-22T09:15:08.960Z,100104.31
2023-03-22T09:17:41.194Z,100105.34
2023-03-22T09:20:13.157Z,100100.53
2023-03-22T09:22:45.807Z,100101.63
2023-03-22T09:25:18.282Z,100095.38
2023-03-22T09:27:53.532Z,100093.69
2023-03-22T09:30:23.520Z,100089.59
2023-03-22T09:32:53.452Z,100088.78
2023-03-22T09:35:23.454Z,100091.28
2023-03-22T09:38:00.774Z,100085.03
2023-03-22T09:40:34.645Z,100090.78
2023-03-22T09:43:14.999Z,100076.34
2023-03-22T09:45:50.033Z,100084.75
2023-03-22T09:48:25.156Z,100084.13
2023-03-22T09:50:57.542Z,100078.88
2023-03-22T09:53:32.477Z,100078.88
2023-03-22T09:56:13.249Z,100079.34
2023-03-22T09:58:53.857Z,100063.88
2023-03-22T10:01:35.337Z,100070.16
2023-03-22T10:04:27.178Z,100060.09
2023-03-22T10:07:09.759Z,100059.69
2023-03-22T10:09:54.890Z,100059.28
2023-03-22T10:12:32.053Z,100058.41
2023-03-22T10:15:13.334Z,100052.94
2023-03-22T10:17:48.164Z,100048.72
2023-03-22T10:20:32.874Z,100043.88
2023-03-22T10:23:08.022Z,100041.47
2023-03-22T10:25:41.728Z,100051.38
2023-03-22T10:28:21.277Z,100052.78
2023-03-22T10:30:58.478Z,100032.63
2023-03-22T10:33:37.281Z,100035.81
2023-03-22T10:36:12.240Z,100032.41
2023-03-22T10:38:50.586Z,100027.03
2023-03-22T10:41:24.980Z,100029.63
2023-03-22T10:43:59.421Z,100021.53
2023-03-22T10:46:40.077Z,100020.06
2023-03-22T10:49:16.341Z,100026.22
2023-03-22T10:51:52.171Z,100023.97
2023-03-22T10:54:26.157Z,100027.19
2023-03-22T10:56:56.565Z,100013.75
2023-03-22T10:59:44.850Z,100032.03
2023-03-22T11:02:26.621Z,100025.84
2023-03-22T11:04:59.531Z,100012.38
2023-03-22T11:07:34.087Z,100012.06
2023-03-22T11:10:32.688Z,100018.00
2023-03-22T11:13:21.662Z,100010.72
2023-03-22T11:16:01.505Z,99999.00
2023-03-22T11:18:37.667Z,99996.09
2023-03-22T11:21:10.748Z,99996.94
2023-03-22T11:23:46.041Z,100011.94
2023-03-22T11:26:17.770Z,99993.81
2023-03-22T11:28:50.438Z,99998.84
2023-03-22T11:31:22.341Z,99989.06
2023-03-22T11:34:02.114Z,99996.03
2023-03-22T11:36:32.587Z,99995.06
2023-03-22T11:39:05.135Z,99989.38
2023-03-22T11:41:39.996Z,100002.00
2023-03-22T11:44:16.673Z,99982.31
2023-03-22T11:46:56.009Z,99986.88
2023-03-22T11:49:40.743Z,99976.44
2023-03-22T11:52:14.116Z,99976.13
2023-03-22T11:54:47.025Z,99978.44
2023-03-22T11:57:20.441Z,99970.25
2023-03-22T11:59:59.914Z,99971.28
2023-03-22T12:02:34.319Z,99974.09
2023-03-22T12:05:15.512Z,99960.38
2023-03-22T12:07:46.723Z,99957.69
2023-03-22T12:10:24.264Z,99950.69
2023-03-22T12:12:58.708Z,99944.44
2023-03-22T12:15:34.637Z,99938.25
2023-03-22T12:18:11.980Z,99943.50
2023-03-22T12:20:52.102Z,99946.75
2023-03-22T12:23:24.784Z,99931.13
2023-03-22T12:26:03.178Z,99942.59
2023-03-22T12:28:41.219Z,99931.47
2023-03-22T12:31:21.834Z,99931.84
2023-03-22T12:33:56.253Z,99925.28
2023-03-22T12:36:42.694Z,99925.97
2023-03-22T12:39:24.872Z,99912.44
2023-03-22T12:42:02.725Z,99914.00
2023-03-22T12:44:40.617Z,99905.47
2023-03-22T12:47:19.707Z,99906.91
2023-03-22T12:49:57.800Z,99886.78
2023-03-22T12:52:45.347Z,99887.16
2023-03-22T12:55:27.279Z,99879.94
2023-03-22T12:57:58.035Z,99872.88
2023-03-22T13:00:37.656Z,99875.78
2023-03-22T13:03:21.525Z,99857.22
2023-03-22T13:06:01.736Z,99881.88
2023-03-22T13:09:17.066Z,99870.00
2023-03-22T13:11:51.188Z,99883.63
2023-03-22T13:14:52.054Z,99859.84
2023-03-22T13:17:41.395Z,99863.53
2023-03-22T13:20:28.086Z,99863.44
2023-03-22T13:23:14.740Z,99854.22
2023-03-22T13:26:08.758Z,99850.97
2023-03-22T13:28:39.809Z,99845.13
2023-03-22T13:31:10.015Z,99836.94
2023-03-22T13:33:40.405Z,99836.09
2023-03-22T13:36:26.042Z,99823.72
2023-03-22T13:39:03.030Z,99815.06
2023-03-22T13:41:37.995Z,99821.81
2023-03-22T13:44:27.513Z,99822.34
2023-03-22T13:47:02.495Z,99822.88
2023-03-22T13:49:49.353Z,99824.84
2023-03-22T13:52:30.067Z,99808.06
2023-03-22T13:55:01.144Z,99810.94
2023-03-22T13:58:02.990Z,99813.19
2023-03-22T14:00:41.259Z,99807.56
2023-03-22T14:03:20.826Z,99799.56
2023-03-22T14:05:57.305Z,99795.25
2023-03-22T14:08:32.180Z,99788.41
2023-03-22T14:11:12.767Z,99794.13
2023-03-22T14:13:49.819Z,99788.03
2023-03-22T14:16:31.835Z,99795.50
2023-03-22T14:19:03.056Z,99791.66
2023-03-22T14:21:35.759Z,99774.16
2023-03-22T14:52:22.742Z,99764.72
2023-03-22T14:54:59.454Z,99766.78
2023-03-22T14:57:36.820Z,99766.66
2023-03-22T15:00:19.903Z,99775.16
2023-03-22T15:02:53.360Z,99783.69
2023-03-22T15:05:27.263Z,99778.13
2023-03-22T15:08:09.056Z,99770.09
2023-03-22T15:10:41.136Z,99770.78
2023-03-22T15:13:14.898Z,99768.66
2023-03-22T15:15:48.916Z,99766.34
2023-03-22T15:18:21.812Z,99769.41
2023-03-22T15:20:55.146Z,99769.16
2023-03-22T15:23:33.558Z,99758.19
2023-03-22T15:26:09.492Z,99769.63
2023-03-22T15:28:49.802Z,99755.28
2023-03-22T15:31:32.168Z,99754.06
2023-03-22T15:34:05.024Z,99754.72
2023-03-22T15:36:38.132Z,99750.94
2023-03-22T15:39:18.974Z,99760.31
2023-03-22T15:41:55.102Z,99757.56
2023-03-22T15:44:31.804Z,99762.03
2023-03-22T15:47:17.075Z,99755.38
2023-03-22T15:49:51.452Z,99750.81
2023-03-22T15:52:24.377Z,99760.19
2023-03-22T15:55:02.226Z,99752.31
2023-03-22T15:57:47.496Z,99745.31
2023-03-22T16:00:25.070Z,99757.06
2023-03-22T16:03:01.363Z,99746.50
2023-03-22T16:05:31.619Z,99754.25
2023-03-22T16:08:03.188Z,99748.72
2023-03-22T16:10:35.808Z,99733.75
2023-03-22T16:13:12.302Z,99729.44
2023-03-22T16:15:42.414Z,99732.44
2023-03-22T16:18:19.716Z,99744.81
2023-03-22T16:20:49.879Z,99725.81
2023-03-22T16:23:23.805Z,99743.19
2023-03-22T16:25:54.099Z,99738.09
2023-03-22T16:28:24.120Z,99740.88
2023-03-22T16:30:54.120Z,99745.84
2023-03-22T16:33:26.719Z,99744.25
2023-03-22T16:35:56.654Z,99759.31
2023-03-22T16:38:28.081Z,99747.69
2023-03-22T16:40:58.364Z,99751.38
2023-03-22T16:43:28.949Z,99754.53
2023-03-22T16:46:00.973Z,99754.53
2023-03-22T16:48:33.783Z,99764.09
2023-03-22T16:51:03.838Z,99757.19
2023-03-22T16:53:40.445Z,99765.00
2023-03-22T16:56:16.483Z,99754.94
2023-03-22T16:58:46.574Z,99763.09
2023-03-22T17:01:19.877Z,99763.59
2023-03-22T17:03:54.081Z,99764.16
2023-03-22T17:06:26.542Z,99766.34
2023-03-22T17:08:56.528Z,99764.56
2023-03-22T17:11:29.661Z,99761.91
2023-03-22T17:14:00.889Z,99762.28
2023-03-22T17:16:32.907Z,99756.00
2023-03-22T17:19:06.724Z,99764.88
2023-03-22T17:21:36.828Z,99754.75
2023-03-22T17:24:07.064Z,99760.13
2023-03-22T17:26:37.479Z,99758.78
2023-03-22T17:29:07.543Z,99772.53
2023-03-22T17:31:38.405Z,99772.44
2023-03-22T17:34:16.656Z,99773.75
2023-03-22T17:36:46.605Z,99779.53
2023-03-22T17:39:37.870Z,99779.75
2023-03-22T17:42:08.783Z,99779.63
2023-03-22T17:44:41.258Z,99788.88
2023-03-22T17:49:49.887Z,99791.78
2023-03-22T17:52:20.206Z,99791.16
2023-03-22T17:55:15.014Z,99789.34
2023-03-22T18:00:25.155Z,99794.41
2023-03-22T18:02:55.829Z,99799.78
2023-03-22T18:05:34.078Z,99797.50
2023-03-22T18:08:26.303Z,99800.53
2023-03-22T18:10:54.918Z,99792.53
2023-03-22T18:13:26.127Z,99789.31
2023-03-22T18:15:56.271Z,99797.22
2023-03-22T18:18:26.384Z,99791.88
2023-03-22T18:21:04.466Z,99804.03
2023-03-22T18:23:35.080Z,99804.59
2023-03-22T18:26:20.970Z,99802.50
2023-03-22T18:28:58.364Z,99803.78
2023-03-22T18:31:30.757Z,99806.72
2023-03-22T18:34:01.246Z,99804.88
2023-03-22T18:36:34.490Z,99814.19
2023-03-22T18:39:34.905Z,99814.41
2023-03-22T18:41:59.646Z,99810.91
2023-03-22T18:44:39.112Z,99814.03
2023-03-22T18:47:10.117Z,99809.41
2023-03-22T18:49:40.284Z,99816.22
2023-03-22T18:52:40.000Z,99815.53
2023-03-22T18:55:21.613Z,99805.78
2023-03-22T18:57:54.946Z,99804.91
2023-03-22T19:00:25.553Z,99805.31
2023-03-22T19:02:57.148Z,99806.69
2023-03-22T19:05:27.557Z,99809.97
2023-03-22T19:10:37.782Z,99809.00
2023-03-22T19:13:07.900Z,99810.75
2023-03-22T19:15:46.938Z,99806.00
2023-03-22T19:18:21.884Z,99802.69
2023-03-22T19:21:02.720Z,99807.53
2023-03-22T19:23:44.306Z,99796.91
2023-03-22T19:26:14.340Z,99800.28
2023-03-22T19:28:44.337Z,99793.97
2023-03-22T19:31:14.378Z,99804.69
2023-03-22T19:36:15.657Z,99796.97
2023-03-22T19:38:48.311Z,99807.09
2023-03-22T19:41:42.956Z,99808.19
2023-03-22T19:44:08.486Z,99802.22
2023-03-22T19:46:39.009Z,99801.44
2023-03-22T19:49:08.986Z,99799.34
2023-03-22T19:51:38.962Z,99802.00
2023-03-22T19:54:28.051Z,99803.31
2023-03-22T19:57:02.127Z,99803.84
2023-03-22T19:59:33.044Z,99801.09
2023-03-22T20:02:03.094Z,99810.69
2023-03-22T20:04:33.376Z,99806.97
2023-03-22T20:07:03.566Z,99794.88
2023-03-22T20:09:36.495Z,99801.69
2023-03-22T20:12:10.004Z,99796.97
2023-03-22T20:14:39.976Z,99795.28
2023-03-22T20:17:12.620Z,99803.28
2023-03-22T20:19:47.722Z,99812.69
2023-03-22T20:22:18.015Z,99813.16
2023-03-22T20:24:50.712Z,99806.47
2023-03-22T20:27:20.750Z,99810.47
2023-03-22T20:29:50.885Z,99818.03
2023-03-22T20:32:21.987Z,99824.53
2023-03-22T20:34:52.056Z,99823.22
2023-03-22T20:37:23.543Z,99826.41
2023-03-22T20:39:56.278Z,99830.16
2023-03-22T20:42:26.395Z,99831.56
2023-03-22T20:44:57.013Z,99830.72
2023-03-22T20:47:27.143Z,99834.75
2023-03-22T20:49:57.551Z,99838.13
2023-03-22T20:52:27.711Z,99832.25
2023-03-22T20:55:00.324Z,99835.66
2023-03-22T20:57:30.478Z,99827.31
2023-03-22T21:00:01.203Z,99833.00
2023-03-22T21:02:32.130Z,99826.84
2023-03-22T21:05:02.164Z,99823.50
2023-03-22T21:07:32.270Z,99821.59
2023-03-22T21:10:04.879Z,99826.00
2023-03-22T21:12:35.788Z,99831.09
2023-03-22T21:15:06.185Z,99831.50
2023-03-22T21:17:36.511Z,99832.53
2023-03-22T21:20:07.593Z,99834.44
2023-03-22T21:22:37.877Z,99835.47
2023-03-22T21:25:11.560Z,99830.69
2023-03-22T21:27:41.773Z,99835.13
2023-03-22T21:30:14.695Z,99826.94
2023-03-22T21:32:47.711Z,99838.22
2023-03-22T21:35:17.675Z,99833.25
2023-03-22T21:37:47.622Z,99839.13
2023-03-22T21:40:22.085Z,99837.88
2023-03-22T21:42:54.215Z,99849.56
2023-03-22T21:45:24.257Z,99855.47
2023-03-22T21:47:58.104Z,99863.19
2023-03-22T21:50:28.695Z,99851.88
2023-03-22T21:52:58.681Z,99854.16
2023-03-22T21:55:32.633Z,99847.47
2023-03-22T21:58:03.573Z,99846.66
2023-03-22T22:00:34.521Z,99842.88
2023-03-22T22:03:04.463Z,99847.47
2023-03-22T22:05:36.264Z,99840.78
2023-03-22T22:08:07.894Z,99833.28
2023-03-22T22:10:40.433Z,99833.72
2023-03-22T22:13:10.541Z,99821.56
2023-03-22T22:15:40.717Z,99818.22
2023-03-22T22:18:16.628Z,99816.56
2023-03-22T22:20:46.912Z,99818.88
2023-03-22T22:23:17.024Z,99805.50
2023-03-22T22:25:53.356Z,99808.19
2023-03-22T22:28:23.554Z,99799.81
2023-03-22T22:30:54.479Z,99809.00
2023-03-22T22:33:25.029Z,99801.91
2023-03-22T22:35:55.293Z,99800.25
2023-03-22T22:38:25.245Z,99801.91
2023-03-22T22:40:58.697Z,99795.63
2023-03-22T22:43:28.596Z,99782.84
2023-03-22T22:46:00.574Z,99786.78
2023-03-22T22:48:30.810Z,99786.41
2023-03-22T22:51:04.596Z,99784.28
2023-03-22T22:53:35.398Z,99779.28
2023-03-22T22:56:10.395Z,99777.19
2023-03-22T22:58:42.154Z,99779.28
2023-03-22T23:01:15.124Z,99771.53
2023-03-22T23:03:46.142Z,99766.91
2023-03-22T23:06:20.406Z,99771.34
2023-03-22T23:08:51.268Z,99759.84
2023-03-22T23:11:25.476Z,99769.69
2023-03-22T23:13:58.085Z,99770.50
2023-03-22T23:16:30.092Z,99761.31
2023-03-22T23:19:02.142Z,99757.56
2023-03-22T23:21:34.221Z,99755.91
2023-03-22T23:24:04.419Z,99751.31
2023-03-22T23:26:38.500Z,99754.44
2023-03-22T23:29:09.242Z,99740.03
2023-03-22T23:31:39.692Z,99754.47
2023-03-22T23:34:10.765Z,99749.00
2023-03-22T23:36:44.105Z,99748.81
2023-03-22T23:39:14.305Z,99752.19
2023-03-22T23:41:47.399Z,99746.09
2023-03-22T23:44:18.234Z,99736.28
2023-03-22T23:46:48.788Z,99731.69
2023-03-22T23:49:18.968Z,99723.31
2023-03-22T23:51:48.884Z,99725.19
2023-03-22T23:54:18.885Z,99726.69
2023-03-22T23:56:55.173Z,99714.94
2023-03-22T23:59:25.902Z,99713.25
